Terminal Aerodrome Forecast
Issued by NWS Tuscon, AZ

Home | Current Version | Previous Version | Text Only | Print | Product List | Glossary On
Versions: 1 2 3 4 5 6 7 8 9 10 11 12 13 14 15 16 17
000
FTUS45 KTWC 180916 AAB
TAFDUG
TAF AMD
KDUG 180916Z 1809/1906 12005KT P6SM -RA FEW025 OVC040
      TEMPO 1809/1811 09014KT BKN020
     FM181200 VRB04KT P6SM BKN050
      TEMPO 1812/1814 3SM BR
     FM182200 30006KT P6SM BKN060=

USA.gov is the U.S. government's official web portal to all federal, state and local government web resources and services.